Aérodrome :
LOGIN :

S'inscrire | Disclaimer

   EN    FR    IT 

 










Légende :    VFR   VFR Marginal   IFR   IFR Intensif   IFR Très Intensif
Visi : 
Plafond : 
>= 8 km
>= 3000ft
5 à 8 km
1000 à 3000 ft
1500m à 5 km
500 à 1000 ft
800 à 1500m
200 à 500 ft
< 800m
< 200 ft
Symboles :   Orages  Brouillard  Fortes neiges  Fortes précipitations  Vent > 20 kt
SIGMETs :   Divers  Orages  Givrage  Turbulence  Onde Orograph.  Cendres Volcan.






- Altitude de l'aérodrome : 616 ft
- Code IATA : PUF


LFBP - Pau

DERNIER METAR :
  • 210230Z AUTO 15003KT 9999 FEW054 OVC080 10/10 Q1016 TEMPO 3000 BR BKN002

METARs EXPIRÉS :
  • 210200Z AUTO 14003KT 9999 BKN052 OVC080 10/10 Q1016 TEMPO 3000 BR BKN002
  • 210130Z AUTO 14003KT 9999 BKN049 OVC076 10/10 Q1016 TEMPO 3000 BR BKN002
  • 210100Z AUTO 16002KT 9999 FEW049 OVC076 10/10 Q1016 NOSIG
  • 210030Z AUTO VRB02KT 9999 FEW006 BKN078 10/10 Q1015 NOSIG
  • 210000Z AUTO VRB02KT 9999 FEW005 OVC078 10/10 Q1015 NOSIG

TAF TAF LFBP
Valide du 21 à 00h jusqu'au 22 à 00h UTC


202300Z 2100/2124 VRB02KT 9999 SCT050
PROB30
TEMPO 2103/2107 3000 BR BKN002



MET'MAP, la Météo Aéronautique d'un coup d'oeil ! - Copyright ORBIFLY Décembre 2007 - Disclaimer

ORBIFLY MET'MAP TEAM :

Programmation & Développement : Alexandra Zaïnal
Conception & Développement : Baudouin d'Aumeries
Co-Programmation & Développement : Marc-Olivier Méhu
Soutien technique & logistique : Manuel Goepfert

Contact : metmap@orbifly.com




SOURCES & CREDITS :

   NOAA